createdAt,value
2019-04-23T00:01:49.281Z,16.17
2019-04-23T00:04:20.423Z,16.16
2019-04-23T00:06:53.750Z,16.12
2019-04-23T00:09:15.615Z,15.95
2019-04-23T00:11:40.556Z,15.83
2019-04-23T00:14:05.607Z,15.94
2019-04-23T00:16:29.832Z,16.07
2019-04-23T00:18:49.488Z,15.80
2019-04-23T00:21:39.005Z,15.77
2019-04-23T00:24:12.057Z,15.68
2019-04-23T00:26:32.720Z,15.70
2019-04-23T00:31:24.700Z,15.66
2019-04-23T00:33:45.766Z,15.59
2019-04-23T00:36:10.775Z,15.45
2019-04-23T00:38:38.962Z,15.34
2019-04-23T00:41:05.710Z,15.27
2019-04-23T00:43:32.793Z,15.38
2019-04-23T00:45:57.674Z,15.24
2019-04-23T00:48:52.601Z,15.28
2019-04-23T00:55:47.842Z,15.16
2019-04-23T01:00:44.929Z,15.06
2019-04-23T01:03:05.837Z,14.90
2019-04-23T01:05:30.755Z,14.87
2019-04-23T01:07:58.110Z,14.88
2019-04-23T01:10:34.891Z,14.84
2019-04-23T01:12:59.679Z,14.86
2019-04-23T01:15:34.101Z,14.83
2019-04-23T01:18:08.122Z,14.74
2019-04-23T01:20:28.463Z,14.70
2019-04-23T01:22:37.886Z,14.70
2019-04-23T01:25:21.212Z,14.67
2019-04-23T01:28:23.113Z,14.70
2019-04-23T01:30:41.111Z,14.60
2019-04-23T01:33:09.200Z,14.63
2019-04-23T01:37:58.071Z,14.47
2019-04-23T01:40:34.755Z,14.42
2019-04-23T01:42:56.067Z,14.38
2019-04-23T01:47:50.152Z,14.32
2019-04-23T01:52:45.540Z,14.29
2019-04-23T01:55:09.650Z,14.23
2019-04-23T01:57:37.769Z,14.22
2019-04-23T02:00:03.291Z,14.18
2019-04-23T02:02:38.151Z,14.10
2019-04-23T02:05:01.385Z,14.03
2019-04-23T02:07:29.696Z,14.04
2019-04-23T02:09:48.526Z,14.03
2019-04-23T02:12:18.818Z,13.96
2019-04-23T02:14:43.560Z,14.01
2019-04-23T02:17:13.964Z,13.96
2019-04-23T02:19:38.519Z,13.97
2019-04-23T02:22:21.925Z,13.74
2019-04-23T02:24:41.400Z,13.76
2019-04-23T02:27:05.650Z,13.75
2019-04-23T02:32:08.851Z,13.71
2019-04-23T02:34:51.954Z,13.74
2019-04-23T02:36:57.705Z,13.75
2019-04-23T02:39:26.509Z,13.71
2019-04-23T02:41:54.456Z,13.72
2019-04-23T02:44:16.610Z,13.65
2019-04-23T02:46:40.880Z,13.68
2019-04-23T02:49:20.555Z,13.61
2019-04-23T02:51:39.571Z,13.65
2019-04-23T02:59:05.829Z,13.58
2019-04-23T03:01:31.777Z,13.55
2019-04-23T03:03:59.830Z,13.52
2019-04-23T03:06:14.948Z,13.65
2019-04-23T03:08:57.258Z,13.55
2019-04-23T03:11:23.632Z,13.54
2019-04-23T03:13:53.943Z,13.53
2019-04-23T03:16:47.679Z,13.47
2019-04-23T03:21:31.263Z,13.30
2019-04-23T03:24:28.560Z,13.26
2019-04-23T03:26:42.138Z,13.17
2019-04-23T03:28:57.639Z,13.22
2019-04-23T03:41:15.811Z,13.07
2019-04-23T03:48:34.021Z,12.86
2019-04-23T03:50:43.646Z,12.90
2019-04-23T03:53:34.698Z,12.97
2019-04-23T03:58:21.431Z,13.04
2019-04-23T04:08:16.040Z,13.06
2019-04-23T04:10:25.467Z,12.92
2019-04-23T04:15:48.946Z,12.94
2019-04-23T04:27:45.800Z,12.93
2019-04-23T04:32:41.388Z,12.88
2019-04-23T04:44:47.794Z,12.91
2019-04-23T04:47:09.675Z,12.83
2019-04-23T04:49:48.661Z,12.83
2019-04-23T04:52:26.781Z,12.85
2019-04-23T04:59:24.566Z,12.86
2019-04-23T05:04:19.863Z,12.88
2019-04-23T05:06:51.271Z,12.94
2019-04-23T05:09:11.405Z,12.91
2019-04-23T05:11:46.145Z,12.90
2019-04-23T05:16:29.282Z,12.80
2019-04-23T05:21:36.939Z,12.86
2019-04-23T05:23:54.426Z,12.88
2019-04-23T05:26:25.056Z,12.93
2019-04-23T05:28:55.551Z,12.98
2019-04-23T05:31:17.211Z,12.95
2019-04-23T05:33:41.494Z,12.99
2019-04-23T05:38:43.193Z,13.21
2019-04-23T05:43:26.158Z,13.11
2019-04-23T05:45:57.381Z,13.28
2019-04-23T05:53:11.539Z,13.39
2019-04-23T05:55:45.932Z,13.31
2019-04-23T05:58:15.094Z,13.34
2019-04-23T06:00:39.911Z,13.31
2019-04-23T06:03:08.093Z,13.50
2019-04-23T06:05:34.135Z,13.46
2019-04-23T06:07:55.224Z,13.69
2019-04-23T06:10:26.970Z,13.56
2019-04-23T06:12:52.286Z,13.73
2019-04-23T06:15:22.006Z,13.71
2019-04-23T06:17:47.492Z,13.78
2019-04-23T06:20:09.986Z,13.75
2019-04-23T06:25:35.172Z,13.84
2019-04-23T06:27:45.999Z,13.78
2019-04-23T06:29:57.484Z,13.74
2019-04-23T06:32:25.856Z,13.75
2019-04-23T06:37:24.720Z,13.98
2019-04-23T06:39:50.099Z,14.02
2019-04-23T06:42:09.596Z,13.98
2019-04-23T06:44:44.982Z,14.00
2019-04-23T06:47:06.934Z,14.08
2019-04-23T06:49:37.347Z,13.98
2019-04-23T06:52:15.160Z,14.10
2019-04-23T06:54:36.520Z,14.20
2019-04-23T06:57:09.081Z,14.21
2019-04-23T06:59:29.328Z,14.31
2019-04-23T07:04:17.911Z,14.59
2019-04-23T07:06:48.757Z,14.63
2019-04-23T07:09:10.553Z,14.68
2019-04-23T07:13:58.487Z,14.74
2019-04-23T07:16:27.822Z,14.92
2019-04-23T07:19:19.873Z,15.00
2019-04-23T07:21:23.583Z,15.06
2019-04-23T07:26:33.294Z,15.03
2019-04-23T07:28:50.116Z,15.13
2019-04-23T07:31:26.318Z,15.12
2019-04-23T07:33:47.588Z,15.07
2019-04-23T07:36:15.624Z,15.23
2019-04-23T07:41:52.722Z,15.65
2019-04-23T07:47:16.197Z,15.82
2019-04-23T07:49:30.739Z,15.78
2019-04-23T07:52:02.979Z,15.70
2019-04-23T07:54:32.566Z,16.09
2019-04-23T07:56:54.066Z,16.04
2019-04-23T07:59:20.743Z,16.14
2019-04-23T08:01:39.156Z,16.03
2019-04-23T08:04:14.356Z,15.87
2019-04-23T08:06:39.998Z,15.78
2019-04-23T08:09:02.320Z,15.83
2019-04-23T08:23:57.314Z,17.23
2019-04-23T08:26:48.177Z,17.73
2019-04-23T08:29:14.028Z,17.47
2019-04-23T08:34:16.780Z,17.48
2019-04-23T08:36:35.813Z,17.32
2019-04-23T08:38:58.675Z,17.35
2019-04-23T08:44:16.906Z,17.32
2019-04-23T08:46:35.548Z,17.31
2019-04-23T08:49:01.848Z,17.45
2019-04-23T08:51:32.404Z,17.73
2019-04-23T08:53:40.781Z,17.60
2019-04-23T08:56:11.934Z,17.57
2019-04-23T08:58:41.473Z,17.76
2019-04-23T09:01:13.691Z,18.02
2019-04-23T09:03:31.271Z,17.73
2019-04-23T09:05:57.651Z,17.99
2019-04-23T09:08:27.284Z,18.56
2019-04-23T09:11:07.644Z,18.85
2019-04-23T09:15:49.781Z,19.31
2019-04-23T09:18:16.419Z,19.42
2019-04-23T09:20:39.401Z,19.87
2019-04-23T09:23:01.915Z,19.49
2019-04-23T09:25:42.282Z,19.23
2019-04-23T09:27:59.387Z,18.78
2019-04-23T09:33:06.493Z,19.06
2019-04-23T09:35:36.363Z,18.94
2019-04-23T09:38:11.624Z,19.12
2019-04-23T09:43:48.544Z,18.71
2019-04-23T09:46:18.006Z,18.61
2019-04-23T09:48:50.970Z,18.85
2019-04-23T09:51:13.578Z,18.65
2019-04-23T09:53:34.403Z,18.58
2019-04-23T09:56:01.108Z,18.77
2019-04-23T09:58:21.887Z,19.05
2019-04-23T10:01:19.597Z,18.82
2019-04-23T10:03:25.448Z,18.82
2019-04-23T10:05:49.049Z,18.74
2019-04-23T10:08:18.545Z,18.61
2019-04-23T10:10:32.510Z,18.83
2019-04-23T10:13:00.173Z,19.09
2019-04-23T10:15:32.412Z,19.08
2019-04-23T10:17:54.116Z,19.14
2019-04-23T10:20:20.640Z,19.09
2019-04-23T10:22:46.312Z,19.33
2019-04-23T10:25:12.986Z,19.29
2019-04-23T10:27:41.236Z,19.51
2019-04-23T10:30:07.949Z,19.42
2019-04-23T10:32:33.539Z,19.27
2019-04-23T10:35:10.152Z,19.47
2019-04-23T10:37:39.429Z,19.33
2019-04-23T10:39:56.676Z,19.42
2019-04-23T10:42:21.799Z,19.66
2019-04-23T10:45:08.162Z,19.46
2019-04-23T10:47:54.298Z,19.79
2019-04-23T10:50:26.045Z,19.89
2019-04-23T10:53:04.518Z,20.01
2019-04-23T10:55:32.235Z,19.86
2019-04-23T10:57:36.069Z,20.12
2019-04-23T11:00:09.490Z,20.01
2019-04-23T11:05:11.783Z,20.27
2019-04-23T11:07:38.393Z,20.38
2019-04-23T11:10:03.319Z,20.29
2019-04-23T11:12:43.652Z,20.44
2019-04-23T11:15:23.347Z,20.47
2019-04-23T11:17:47.944Z,20.66
2019-04-23T11:20:15.158Z,20.95
2019-04-23T11:24:59.158Z,20.85
2019-04-23T11:27:28.116Z,20.97
2019-04-23T11:30:05.704Z,20.99
2019-04-23T11:32:42.907Z,21.05
2019-04-23T11:35:04.347Z,21.13
2019-04-23T11:37:23.117Z,20.80
2019-04-23T11:44:49.545Z,21.16
2019-04-23T11:47:08.295Z,21.14
2019-04-23T11:49:44.840Z,21.31
2019-04-23T11:52:05.582Z,21.16
2019-04-23T11:54:24.187Z,20.78
2019-04-23T11:59:25.732Z,20.85
2019-04-23T12:09:54.992Z,21.67
2019-04-23T12:12:26.830Z,21.66
2019-04-23T12:14:39.148Z,21.99
2019-04-23T12:29:30.413Z,21.43
2019-04-23T12:32:01.825Z,21.85
2019-04-23T12:34:25.799Z,21.58
2019-04-23T12:36:46.661Z,21.87
2019-04-23T12:39:21.481Z,21.69
2019-04-23T12:41:45.512Z,21.63
2019-04-23T12:44:19.437Z,21.78
2019-04-23T12:46:46.199Z,22.06
2019-04-23T12:51:48.699Z,22.17
2019-04-23T12:53:57.933Z,22.81
2019-04-23T12:56:32.008Z,22.83
2019-04-23T12:58:45.169Z,22.36
2019-04-23T13:01:14.131Z,22.14
2019-04-23T13:03:40.899Z,21.80
2019-04-23T13:06:11.471Z,21.85
2019-04-23T13:11:08.013Z,21.99
2019-04-23T13:15:53.248Z,22.53
2019-04-23T13:18:31.887Z,22.53
2019-04-23T13:20:41.804Z,22.42
2019-04-23T13:25:54.279Z,22.63
2019-04-23T13:28:21.433Z,22.40
2019-04-23T13:33:26.774Z,22.47
2019-04-23T13:35:53.393Z,22.64
2019-04-23T13:40:39.290Z,22.63
2019-04-23T13:43:01.146Z,22.84
2019-04-23T13:48:00.399Z,22.93
2019-04-23T13:50:34.592Z,23.00
2019-04-23T13:55:09.179Z,23.00
2019-04-23T14:00:09.421Z,22.70
2019-04-23T14:05:04.747Z,22.71
2019-04-23T14:07:38.378Z,22.78
2019-04-23T14:12:31.930Z,22.58
2019-04-23T14:15:12.467Z,22.95
2019-04-23T14:17:38.230Z,23.06
2019-04-23T14:19:53.524Z,23.43
2019-04-23T14:22:31.299Z,23.48
2019-04-23T14:24:53.157Z,23.17
2019-04-23T14:27:14.946Z,23.37
2019-04-23T14:29:38.865Z,22.86
2019-04-23T14:32:08.772Z,22.91
2019-04-23T14:34:30.469Z,23.16
2019-04-23T14:36:59.515Z,22.96
2019-04-23T14:39:25.512Z,23.15
2019-04-23T14:41:53.932Z,22.88
2019-04-23T14:46:54.866Z,23.05
2019-04-23T14:49:24.656Z,23.49
2019-04-23T14:51:51.619Z,23.54
2019-04-23T14:54:15.818Z,23.23
2019-04-23T14:56:44.883Z,23.05
2019-04-23T15:01:36.311Z,23.09
2019-04-23T15:03:55.282Z,23.01
2019-04-23T15:11:27.611Z,23.21
2019-04-23T15:16:22.329Z,22.98
2019-04-23T15:21:42.907Z,23.25
2019-04-23T15:23:51.415Z,23.60
2019-04-23T15:28:10.151Z,23.63
2019-04-23T15:31:02.478Z,23.53
2019-04-23T15:36:12.951Z,23.57
2019-04-23T15:38:37.699Z,23.12
2019-04-23T15:40:53.921Z,23.27
2019-04-23T15:45:44.499Z,23.10
2019-04-23T15:48:12.038Z,23.38
2019-04-23T15:50:37.649Z,23.34
2019-04-23T15:55:28.300Z,23.10
2019-04-23T16:00:19.249Z,22.81
2019-04-23T16:02:20.866Z,22.90
2019-04-23T16:04:48.960Z,22.96
2019-04-23T16:07:31.476Z,22.96
2019-04-23T16:12:31.391Z,22.97
2019-04-23T16:15:07.804Z,23.10
2019-04-23T16:17:28.899Z,23.15
2019-04-23T16:20:25.518Z,23.01
2019-04-23T16:25:17.321Z,22.91
2019-04-23T16:27:26.045Z,22.87
2019-04-23T16:32:38.040Z,23.23
2019-04-23T16:35:12.876Z,22.97
2019-04-23T16:37:27.393Z,23.06
2019-04-23T16:40:01.850Z,23.04
2019-04-23T16:42:24.882Z,23.13
2019-04-23T16:45:02.793Z,23.34
2019-04-23T16:47:21.711Z,23.19
2019-04-23T16:49:47.246Z,23.02
2019-04-23T16:52:07.819Z,23.03
2019-04-23T16:54:39.109Z,22.96
2019-04-23T16:59:54.293Z,22.92
2019-04-23T17:02:03.614Z,22.71
2019-04-23T17:04:24.821Z,22.51
2019-04-23T17:06:53.496Z,22.74
2019-04-23T17:09:22.045Z,22.59
2019-04-23T17:11:41.734Z,22.46
2019-04-23T17:14:13.570Z,22.33
2019-04-23T17:16:40.114Z,22.15
2019-04-23T17:19:10.410Z,22.04
2019-04-23T17:21:29.845Z,21.95
2019-04-23T17:24:08.085Z,21.84
2019-04-23T17:26:25.666Z,21.70
2019-04-23T17:28:54.325Z,21.57
2019-04-23T17:31:30.836Z,21.57
2019-04-23T17:36:28.562Z,21.32
2019-04-23T17:39:01.354Z,20.97
2019-04-23T17:44:01.433Z,20.55
2019-04-23T17:48:40.293Z,20.29
2019-04-23T17:51:17.721Z,20.12
2019-04-23T17:53:40.460Z,19.84
2019-04-23T17:56:26.249Z,19.56
2019-04-23T17:58:37.228Z,19.20
2019-04-23T18:01:17.046Z,18.97
2019-04-23T18:03:46.025Z,18.80
2019-04-23T18:08:27.714Z,18.52
2019-04-23T18:10:56.300Z,18.45
2019-04-23T18:13:21.068Z,18.14
2019-04-23T18:15:45.251Z,18.11
2019-04-23T18:18:10.086Z,17.90
2019-04-23T18:20:56.121Z,17.71
2019-04-23T18:23:10.016Z,17.50
2019-04-23T18:25:51.838Z,17.70
2019-04-23T18:28:10.415Z,17.78
2019-04-23T18:30:56.689Z,17.41
2019-04-23T18:33:56.694Z,17.17
2019-04-23T18:35:44.608Z,17.21
2019-04-23T18:41:00.958Z,17.23
2019-04-23T18:43:20.181Z,17.39
2019-04-23T18:48:11.066Z,16.88
2019-04-23T18:50:48.348Z,16.79
2019-04-23T18:53:09.776Z,17.16
2019-04-23T18:55:46.572Z,16.68
2019-04-23T18:58:03.886Z,16.62
2019-04-23T19:00:39.484Z,16.55
2019-04-23T19:03:21.792Z,16.57
2019-04-23T19:06:10.055Z,16.85
2019-04-23T19:08:48.964Z,16.47
2019-04-23T19:11:31.917Z,16.32
2019-04-23T19:13:44.585Z,16.30
2019-04-23T19:16:13.100Z,16.24
2019-04-23T19:18:45.154Z,16.30
2019-04-23T19:21:10.803Z,16.37
2019-04-23T19:23:42.844Z,16.41
2019-04-23T19:25:54.615Z,16.66
2019-04-23T19:28:41.402Z,16.73
2019-04-23T19:31:06.267Z,16.70
2019-04-23T19:33:36.660Z,16.60
2019-04-23T19:36:04.493Z,16.45
2019-04-23T19:38:23.954Z,16.42
2019-04-23T19:40:51.196Z,16.38
2019-04-23T19:43:11.956Z,16.36
2019-04-23T19:48:11.480Z,16.52
2019-04-23T19:50:40.630Z,16.62
2019-04-23T19:55:24.113Z,16.48
2019-04-23T19:57:55.304Z,16.51
2019-04-23T20:00:17.110Z,16.54
2019-04-23T20:05:13.709Z,16.50
2019-04-23T20:07:52.232Z,16.35
2019-04-23T20:09:56.880Z,16.37
2019-04-23T20:12:38.683Z,16.61
2019-04-23T20:14:56.245Z,16.50
2019-04-23T20:19:48.311Z,16.42
2019-04-23T20:22:29.201Z,16.37
2019-04-23T20:30:14.423Z,16.22
2019-04-23T20:34:59.089Z,16.39
2019-04-23T20:37:29.401Z,16.24
2019-04-23T20:39:50.799Z,16.21
2019-04-23T20:44:50.816Z,16.28
2019-04-23T20:47:11.468Z,16.42
2019-04-23T20:52:04.746Z,16.38
2019-04-23T20:54:44.656Z,16.24
2019-04-23T20:57:22.980Z,16.17
2019-04-23T20:59:49.897Z,16.19
2019-04-23T21:02:34.349Z,16.09
2019-04-23T21:05:01.395Z,15.89
2019-04-23T21:07:22.141Z,15.88
2019-04-23T21:09:51.522Z,16.16
2019-04-23T21:12:16.183Z,16.13
2019-04-23T21:14:48.408Z,16.06
2019-04-23T21:17:07.410Z,15.99
2019-04-23T21:19:48.618Z,16.09
2019-04-23T21:22:02.561Z,15.98
2019-04-23T21:24:27.478Z,15.89
2019-04-23T21:27:07.347Z,15.89
2019-04-23T21:29:36.419Z,15.78
2019-04-23T21:31:48.502Z,15.87
2019-04-23T21:36:44.505Z,15.80
2019-04-23T21:39:24.645Z,15.77
2019-04-23T21:46:58.778Z,15.18
2019-04-23T21:49:50.689Z,15.25
2019-04-23T21:51:56.451Z,15.35
2019-04-23T21:54:07.943Z,15.47
2019-04-23T21:56:42.969Z,15.59
2019-04-23T22:06:40.054Z,15.59
2019-04-23T22:18:58.613Z,14.68
2019-04-23T22:21:15.339Z,14.58
2019-04-23T22:23:52.629Z,14.64
2019-04-23T22:26:16.803Z,14.76
2019-04-23T22:28:43.512Z,14.60
2019-04-23T22:31:04.051Z,14.59
2019-04-23T22:33:26.868Z,14.64
2019-04-23T22:35:55.639Z,14.65
2019-04-23T22:38:18.737Z,14.74
2019-04-23T22:40:50.717Z,14.95
2019-04-23T22:45:43.103Z,15.20
2019-04-23T22:50:38.484Z,15.26
2019-04-23T22:53:01.543Z,15.36
2019-04-23T22:55:27.666Z,15.36
2019-04-23T23:03:01.240Z,15.18
2019-04-23T23:05:29.033Z,14.93
2019-04-23T23:07:56.241Z,15.02
2019-04-23T23:10:28.358Z,14.91
2019-04-23T23:12:53.322Z,14.81
2019-04-23T23:15:15.967Z,14.76
2019-04-23T23:17:45.555Z,15.17
2019-04-23T23:20:15.693Z,14.68
2019-04-23T23:22:31.487Z,14.67
2019-04-23T23:25:04.715Z,14.54
2019-04-23T23:27:24.693Z,14.62
2019-04-23T23:29:58.118Z,14.63
2019-04-23T23:32:24.440Z,14.47
2019-04-23T23:35:00.766Z,14.45
2019-04-23T23:37:12.144Z,14.57
2019-04-23T23:39:40.667Z,14.50
2019-04-23T23:42:18.114Z,14.50
2019-04-23T23:47:03.192Z,14.42
2019-04-23T23:49:28.447Z,14.46
2019-04-23T23:51:55.349Z,14.48
2019-04-23T23:56:52.311Z,14.51
2019-04-23T23:59:26.974Z,14.57
